avis per tempestes more information blitzortung!


avis per Pluja more information rain snow radar


Visita la nostra xarxa de llocs de meteo:

Template documentation
and downloads

And another site



Thunderstorms From: 18-09-2018 09:00 Until: 19-09-2018 20:59 warning for: Thunderstorms Level: Yellow info button
Rain From: 18-09-2018 09:00 Until: 19-09-2018 20:59 warning for: Rain Level: Yellow info button

Pagina Historial Weather Underground text

Diari Resum Juliol 18, 2017 Unitats:  Tant    Imperial   Mètric
« Previous Dia
SegĂźent Dia »
Diari Setmana Mensual Anual Personalitzada
  Maxima: Minima: Media:
Temperatura: TemperatureC °F /  -17.8 °C 19.9 °F /  -6.7 °C 28.2 °F /  -2.1 °C
Punt de rosada: DewpointC °F /  -17.8 °C 10.8 °F /  -11.8 °C 15 °F /  -9.4 °C
Humitat: Humidity % 28 % 47 %
Wind Speed: WindSpeedKMH mph /  0 km/h - 6.8 mph /  10.9 km/h
RĂ fegues de vent: WindSpeedGustKMH mph /  0 km/h - -
Vent:- - SSW
Pression baro: PressurehPa in /  0 hPa 1012.8 in /  34293.4 hPa -
Precipitacions: 0.0 in /  0 mm    
Historical Graphs
 
 
Dades de taula per Juliol 18, 2017
Temps Temperatura Punt de rosada Pression baro Vent Wind Speed RĂ fegues de vent Humitat Rainfall Rate (Hourly)
TemperatureC °F /  -17.8 °C DewpointC °F /  -17.8 °C PressurehPa in /  0 hPa Calm     Humidity % HourlyPrecipMM in /  0 mm
00:00 20.9 °F /  -6.2 °C 16.3 °F /  -8.7 °C 1015.8 in /  34395 hPa Calm   1.6 mph /  2.6 km/h 75 % 0.0 in /  0 mm
00:04 23.4 °F /  -4.8 °C 16.4 °F /  -8.7 °C 1015.8 in /  34395 hPa ENE 1.9 mph /  3.1 km/h 1.9 mph /  3.1 km/h 65 % 0.0 in /  0 mm
00:10 20.8 °F /  -6.2 °C 16.2 °F /  -8.8 °C 1015.8 in /  34395 hPa North 1.6 mph /  2.6 km/h 1.6 mph /  2.6 km/h 75 % 0.0 in /  0 mm
00:20 20.7 °F /  -6.3 °C 16.3 °F /  -8.7 °C 1015.8 in /  34395 hPa NNE 1.6 mph /  2.6 km/h 3.2 mph /  5.1 km/h 76 % 0.0 in /  0 mm
00:30 20.6 °F /  -6.3 °C 16.2 °F /  -8.8 °C 1014.8 in /  34361.1 hPa NE 1.6 mph /  2.6 km/h 3.2 mph /  5.1 km/h 76 % 0.0 in /  0 mm
00:40 20.4 °F /  -6.4 °C 16.0 °F /  -8.9 °C 1014.8 in /  34361.1 hPa Calm   3.2 mph /  5.1 km/h 76 % 0.0 in /  0 mm
00:50 20.2 °F /  -6.6 °C 15.8 °F /  -9 °C 1014.8 in /  34361.1 hPa Calm     76 % 0.0 in /  0 mm
01:00 20.0 °F /  -6.7 °C 15.7 °F /  -9.1 °C 1014.8 in /  34361.1 hPa Calm     76 % 0.0 in /  0 mm
01:10 20.0 °F /  -6.7 °C 15.8 °F /  -9 °C 1014.8 in /  34361.1 hPa SE 1.6 mph /  2.6 km/h 1.6 mph /  2.6 km/h 77 % 0.0 in /  0 mm
01:25 20.0 °F /  -6.7 °C 15.8 °F /  -9 °C 1014.8 in /  34361.1 hPa Calm   3.2 mph /  5.1 km/h 77 % 0.0 in /  0 mm
01:35 19.9 °F /  -6.7 °C 15.7 °F /  -9.1 °C 1014.8 in /  34361.1 hPa ENE 1.6 mph /  2.6 km/h   77 % 0.0 in /  0 mm
01:45 19.9 °F /  -6.7 °C 15.9 °F /  -8.9 °C 1014.8 in /  34361.1 hPa Calm   1.6 mph /  2.6 km/h 78 % 0.0 in /  0 mm
01:55 19.9 °F /  -6.7 °C 15.9 °F /  -8.9 °C 1014.8 in /  34361.1 hPa Calm     78 % 0.0 in /  0 mm
02:05 19.9 °F /  -6.7 °C 15.9 °F /  -8.9 °C 1014.8 in /  34361.1 hPa Calm     78 % 0.0 in /  0 mm
02:15 20.0 °F /  -6.7 °C 16.1 °F /  -8.8 °C 1014.8 in /  34361.1 hPa Calm   1.6 mph /  2.6 km/h 78 % 0.0 in /  0 mm
02:25 20.2 °F /  -6.6 °C 16.1 °F /  -8.8 °C 1014.8 in /  34361.1 hPa Calm   1.6 mph /  2.6 km/h 77 % 0.0 in /  0 mm
02:35 20.4 °F /  -6.4 °C 16.2 °F /  -8.8 °C 1014.8 in /  34361.1 hPa South 1.6 mph /  2.6 km/h 4.8 mph /  7.7 km/h 77 % 0.0 in /  0 mm
02:45 20.6 °F /  -6.3 °C 16.0 °F /  -8.9 °C 1015.8 in /  34395 hPa Calm   3.2 mph /  5.1 km/h 75 % 0.0 in /  0 mm
02:55 21.0 °F /  -6.1 °C 16.2 °F /  -8.8 °C 1014.8 in /  34361.1 hPa Calm   4.8 mph /  7.7 km/h 74 % 0.0 in /  0 mm
03:05 21.3 °F /  -5.9 °C 16.3 °F /  -8.7 °C 1014.8 in /  34361.1 hPa NNE 1.6 mph /  2.6 km/h 3.2 mph /  5.1 km/h 73 % 0.0 in /  0 mm
03:15 21.6 °F /  -5.8 °C 16.3 °F /  -8.7 °C 1015.8 in /  34395 hPa NE 1.6 mph /  2.6 km/h 4.8 mph /  7.7 km/h 72 % 0.0 in /  0 mm
03:25 21.3 °F /  -5.9 °C 15.8 °F /  -9 °C 1014.8 in /  34361.1 hPa NE 3.2 mph /  5.1 km/h 4.8 mph /  7.7 km/h 71 % 0.0 in /  0 mm
03:35 21.6 °F /  -5.8 °C 16.1 °F /  -8.8 °C 1014.8 in /  34361.1 hPa NE 1.6 mph /  2.6 km/h 4.8 mph /  7.7 km/h 71 % 0.0 in /  0 mm
03:45 22.4 °F /  -5.3 °C 16.4 °F /  -8.7 °C 1014.8 in /  34361.1 hPa NE 3.2 mph /  5.1 km/h 4.8 mph /  7.7 km/h 69 % 0.0 in /  0 mm
03:55 22.8 °F /  -5.1 °C 16.6 °F /  -8.6 °C 1015.8 in /  34395 hPa ENE 3.2 mph /  5.1 km/h 4.8 mph /  7.7 km/h 68 % 0.0 in /  0 mm
04:05 22.7 °F /  -5.2 °C 16.0 °F /  -8.9 °C 1015.8 in /  34395 hPa NE 3.2 mph /  5.1 km/h 6.4 mph /  10.3 km/h 66 % 0.0 in /  0 mm
04:15 23.5 °F /  -4.7 °C 16.8 °F /  -8.4 °C 1015.8 in /  34395 hPa NE 3.2 mph /  5.1 km/h 6.4 mph /  10.3 km/h 66 % 0.0 in /  0 mm
04:25 23.9 °F /  -4.5 °C 16.9 °F /  -8.4 °C 1015.8 in /  34395 hPa NE 1.6 mph /  2.6 km/h 6.4 mph /  10.3 km/h 65 % 0.0 in /  0 mm
04:35 25.2 °F /  -3.8 °C 17.2 °F /  -8.2 °C 1015.8 in /  34395 hPa NE 1.6 mph /  2.6 km/h 1.6 mph /  2.6 km/h 61 % 0.0 in /  0 mm
04:45 26.0 °F /  -3.3 °C 18.2 °F /  -7.7 °C 1015.8 in /  34395 hPa NNW 3.2 mph /  5.1 km/h 4.8 mph /  7.7 km/h 62 % 0.0 in /  0 mm
04:55 25.5 °F /  -3.6 °C 17.7 °F /  -7.9 °C 1015.8 in /  34395 hPa NNE 1.6 mph /  2.6 km/h 3.2 mph /  5.1 km/h 62 % 0.0 in /  0 mm
05:05 25.5 °F /  -3.6 °C 17.9 °F /  -7.8 °C 1015.8 in /  34395 hPa NE 4.8 mph /  7.7 km/h 6.4 mph /  10.3 km/h 63 % 0.0 in /  0 mm
05:15 25.5 °F /  -3.6 °C 17.9 °F /  -7.8 °C 1015.8 in /  34395 hPa ENE 3.2 mph /  5.1 km/h 4.8 mph /  7.7 km/h 63 % 0.0 in /  0 mm
05:25 26.0 °F /  -3.3 °C 18.2 °F /  -7.7 °C 1015.8 in /  34395 hPa ENE 1.6 mph /  2.6 km/h 4.8 mph /  7.7 km/h 62 % 0.0 in /  0 mm
05:35 27.1 °F /  -2.7 °C 18.7 °F /  -7.4 °C 1015.8 in /  34395 hPa West 4.8 mph /  7.7 km/h 4.8 mph /  7.7 km/h 60 % 0.0 in /  0 mm
05:45 27.7 °F /  -2.4 °C 18.7 °F /  -7.4 °C 1015.8 in /  34395 hPa SSW 4.8 mph /  7.7 km/h 6.4 mph /  10.3 km/h 58 % 0.0 in /  0 mm
10:49 28.2 °F /  -2.1 °C 18.9 °F /  -7.3 °C 1015.8 in /  34395 hPa South 3.7 mph /  6 km/h 3.7 mph /  6 km/h 57 % 0.0 in /  0 mm
10:54 28.1 °F /  -2.2 °C 18.5 °F /  -7.5 °C 1015.8 in /  34395 hPa South 5.6 mph /  9 km/h 6.1 mph /  9.8 km/h 56 % 0.0 in /  0 mm
10:59 28.0 °F /  -2.2 °C 18.1 °F /  -7.7 °C 1015.8 in /  34395 hPa SW 6.1 mph /  9.8 km/h 6.1 mph /  9.8 km/h 55 % 0.0 in /  0 mm
11:05 28.0 °F /  -2.2 °C 17.8 °F /  -7.9 °C 1015.8 in /  34395 hPa West 7.4 mph /  11.9 km/h 7.4 mph /  11.9 km/h 54 % 0.0 in /  0 mm
11:10 28.4 °F /  -2 °C 17.6 °F /  -8 °C 1015.8 in /  34395 hPa SSW 7.4 mph /  11.9 km/h 7.4 mph /  11.9 km/h 52 % 0.0 in /  0 mm
11:15 28.7 °F /  -1.8 °C 17.6 °F /  -8 °C 1015.8 in /  34395 hPa SSW 11.1 mph /  17.9 km/h 11.1 mph /  17.9 km/h 51 % 0.0 in /  0 mm
11:20 28.7 °F /  -1.8 °C 17.6 °F /  -8 °C 1015.8 in /  34395 hPa SSE 9.3 mph /  15 km/h 9.3 mph /  15 km/h 51 % 0.0 in /  0 mm
11:25 28.8 °F /  -1.8 °C 17.3 °F /  -8.2 °C 1015.8 in /  34395 hPa SW 18.5 mph /  29.8 km/h 18.5 mph /  29.8 km/h 50 % 0.0 in /  0 mm
11:30 29.3 °F /  -1.5 °C 17.5 °F /  -8.1 °C 1015.8 in /  34395 hPa SSW 3.7 mph /  6 km/h 6.1 mph /  9.8 km/h 49 % 0.0 in /  0 mm
11:35 29.2 °F /  -1.6 °C 17.4 °F /  -8.1 °C 1015.8 in /  34395 hPa West 13.0 mph /  20.9 km/h 13.0 mph /  20.9 km/h 49 % 0.0 in /  0 mm
11:40 29.1 °F /  -1.6 °C 17.3 °F /  -8.2 °C 1014.8 in /  34361.1 hPa WSW 3.2 mph /  5.1 km/h 9.7 mph /  15.6 km/h 49 % 0.0 in /  0 mm
11:45 29.7 °F /  -1.3 °C 17.8 °F /  -7.9 °C 1014.8 in /  34361.1 hPa WSW 3.2 mph /  5.1 km/h 9.7 mph /  15.6 km/h 49 % 0.0 in /  0 mm
11:50 29.6 °F /  -1.3 °C 17.8 °F /  -7.9 °C 1014.8 in /  34361.1 hPa WSW 9.5 mph /  15.3 km/h 9.5 mph /  15.3 km/h 49 % 0.0 in /  0 mm
11:55 29.7 °F /  -1.3 °C 17.8 °F /  -7.9 °C 1015.8 in /  34395 hPa WSW 9.5 mph /  15.3 km/h 9.5 mph /  15.3 km/h 49 % 0.0 in /  0 mm
12:00 29.9 °F /  -1.2 °C 17.7 °F /  -7.9 °C 1015.8 in /  34395 hPa SSW 9.3 mph /  15 km/h 9.3 mph /  15 km/h 48 % 0.0 in /  0 mm
12:05 30.2 °F /  -1 °C 18.0 °F /  -7.8 °C 1015.8 in /  34395 hPa WSW 11.1 mph /  17.9 km/h 11.1 mph /  17.9 km/h 48 % 0.0 in /  0 mm
12:10 30.0 °F /  -1.1 °C 17.8 °F /  -7.9 °C 1015.8 in /  34395 hPa WSW 9.3 mph /  15 km/h 9.3 mph /  15 km/h 48 % 0.0 in /  0 mm
12:15 30.3 °F /  -0.9 °C 18.1 °F /  -7.7 °C 1015.8 in /  34395 hPa SW 11.1 mph /  17.9 km/h 11.1 mph /  17.9 km/h 48 % 0.0 in /  0 mm
12:20 30.3 °F /  -0.9 °C 17.7 °F /  -7.9 °C 1015.8 in /  34395 hPa SW 8.0 mph /  12.9 km/h 9.7 mph /  15.6 km/h 47 % 0.0 in /  0 mm
12:25 30.7 °F /  -0.7 °C 18.1 °F /  -7.7 °C 1014.8 in /  34361.1 hPa SW 9.7 mph /  15.6 km/h 12.9 mph /  20.8 km/h 47 % 0.0 in /  0 mm
12:30 30.6 °F /  -0.8 °C 17.6 °F /  -8 °C 1014.8 in /  34361.1 hPa SW 4.8 mph /  7.7 km/h 12.9 mph /  20.8 km/h 46 % 0.0 in /  0 mm
12:35 31.3 °F /  -0.4 °C 18.3 °F /  -7.6 °C 1014.8 in /  34361.1 hPa ENE 5.6 mph /  9 km/h 5.6 mph /  9 km/h 46 % 0.0 in /  0 mm
12:40 31.7 °F /  -0.2 °C 18.3 °F /  -7.6 °C 1014.8 in /  34361.1 hPa East 7.4 mph /  11.9 km/h 7.4 mph /  11.9 km/h 45 % 0.0 in /  0 mm
12:45 31.7 °F /  -0.2 °C 17.9 °F /  -7.8 °C 1014.8 in /  34361.1 hPa South 9.3 mph /  15 km/h 9.3 mph /  15 km/h 44 % 0.0 in /  0 mm
12:50 32.1 °F /  0.1 °C 17.9 °F /  -7.8 °C 1014.8 in /  34361.1 hPa WSW 4.7 mph /  7.6 km/h 5.3 mph /  8.5 km/h 43 % 0.0 in /  0 mm
12:55 32.5 °F /  0.3 °C 18.3 °F /  -7.6 °C 1014.8 in /  34361.1 hPa SSW 13.0 mph /  20.9 km/h 13.0 mph /  20.9 km/h 43 % 0.0 in /  0 mm
13:00 31.8 °F /  -0.1 °C 17.7 °F /  -7.9 °C 1014.8 in /  34361.1 hPa SW 5.6 mph /  9 km/h 5.6 mph /  9 km/h 43 % 0.0 in /  0 mm
13:05 31.8 °F /  -0.1 °C 17.3 °F /  -8.2 °C 1014.8 in /  34361.1 hPa SW 9.3 mph /  15 km/h 9.3 mph /  15 km/h 42 % 0.0 in /  0 mm
13:10 31.7 °F /  -0.2 °C 17.2 °F /  -8.2 °C 1014.8 in /  34361.1 hPa SW 7.4 mph /  11.9 km/h 7.6 mph /  12.2 km/h 42 % 0.0 in /  0 mm
13:15 31.5 °F /  -0.3 °C 17.1 °F /  -8.3 °C 1014.8 in /  34361.1 hPa SSE 3.7 mph /  6 km/h 6.1 mph /  9.8 km/h 42 % 0.0 in /  0 mm
13:20 31.9 °F /  -0.1 °C 17.0 °F /  -8.3 °C 1014.8 in /  34361.1 hPa West 13.0 mph /  20.9 km/h 13.0 mph /  20.9 km/h 41 % 0.0 in /  0 mm
13:21 32.1 °F /  0.1 °C 17.2 °F /  -8.2 °C 1014.8 in /  34361.1 hPa West 9.3 mph /  15 km/h 9.3 mph /  15 km/h 41 % 0.0 in /  0 mm
13:26 32.7 °F /  0.4 °C 17.3 °F /  -8.2 °C 1014.8 in /  34361.1 hPa SSW 9.0 mph /  14.5 km/h 9.0 mph /  14.5 km/h 40 % 0.0 in /  0 mm
13:31 32.8 °F /  0.4 °C 17.0 °F /  -8.3 °C 1014.8 in /  34361.1 hPa SW 13.0 mph /  20.9 km/h 13.0 mph /  20.9 km/h 39 % 0.0 in /  0 mm
13:37 32.4 °F /  0.2 °C 16.7 °F /  -8.5 °C 1014.8 in /  34361.1 hPa SW 13.7 mph /  22 km/h 13.7 mph /  22 km/h 39 % 0.0 in /  0 mm
13:42 32.8 °F /  0.4 °C 17.0 °F /  -8.3 °C 1014.8 in /  34361.1 hPa SW 8.7 mph /  14 km/h 8.7 mph /  14 km/h 39 % 0.0 in /  0 mm
13:47 33.3 °F /  0.7 °C 16.2 °F /  -8.8 °C 1014.8 in /  34361.1 hPa SSE 11.1 mph /  17.9 km/h 11.1 mph /  17.9 km/h 36 % 0.0 in /  0 mm
13:52 33.2 °F /  0.7 °C 16.6 °F /  -8.6 °C 1014.8 in /  34361.1 hPa SW 11.1 mph /  17.9 km/h 11.1 mph /  17.9 km/h 37 % 0.0 in /  0 mm
13:57 33.5 °F /  0.8 °C 16.4 °F /  -8.7 °C 1014.8 in /  34361.1 hPa South 5.6 mph /  9 km/h 5.8 mph /  9.3 km/h 36 % 0.0 in /  0 mm
14:02 33.5 °F /  0.8 °C 16.8 °F /  -8.4 °C 1014.8 in /  34361.1 hPa SE 9.3 mph /  15 km/h 9.3 mph /  15 km/h 37 % 0.0 in /  0 mm
14:07 33.3 °F /  0.7 °C 16.2 °F /  -8.8 °C 1014.8 in /  34361.1 hPa SW 12.6 mph /  20.3 km/h 12.6 mph /  20.3 km/h 36 % 0.0 in /  0 mm
14:12 33.0 °F /  0.6 °C 16.4 °F /  -8.7 °C 1014.8 in /  34361.1 hPa SW 13.0 mph /  20.9 km/h 13.0 mph /  20.9 km/h 37 % 0.0 in /  0 mm
14:17 33.3 °F /  0.7 °C 16.2 °F /  -8.8 °C 1014.8 in /  34361.1 hPa WSW 12.6 mph /  20.3 km/h 12.6 mph /  20.3 km/h 36 % 0.0 in /  0 mm
14:22 33.6 °F /  0.9 °C 16.4 °F /  -8.7 °C 1014.8 in /  34361.1 hPa SW 7.4 mph /  11.9 km/h 7.4 mph /  11.9 km/h 36 % 0.0 in /  0 mm
14:27 33.6 °F /  0.9 °C 16.0 °F /  -8.9 °C 1014.8 in /  34361.1 hPa SSW 5.3 mph /  8.5 km/h 5.3 mph /  8.5 km/h 35 % 0.0 in /  0 mm
14:32 33.6 °F /  0.9 °C 16.4 °F /  -8.7 °C 1014.8 in /  34361.1 hPa SW 14.8 mph /  23.8 km/h 14.8 mph /  23.8 km/h 36 % 0.0 in /  0 mm
14:37 33.8 °F /  1 °C 16.7 °F /  -8.5 °C 1013.8 in /  34327.3 hPa SW 7.4 mph /  11.9 km/h 7.4 mph /  11.9 km/h 36 % 0.0 in /  0 mm
14:42 33.8 °F /  1 °C 16.7 °F /  -8.5 °C 1013.8 in /  34327.3 hPa West 6.4 mph /  10.3 km/h 6.4 mph /  10.3 km/h 36 % 0.0 in /  0 mm
14:48 33.2 °F /  0.7 °C 15.7 °F /  -9.1 °C 1013.8 in /  34327.3 hPa WNW 10.0 mph /  16.1 km/h 10.0 mph /  16.1 km/h 35 % 0.0 in /  0 mm
14:53 32.7 °F /  0.4 °C 15.7 °F /  -9.1 °C 1013.8 in /  34327.3 hPa SSW 16.7 mph /  26.9 km/h 16.7 mph /  26.9 km/h 36 % 0.0 in /  0 mm
14:58 32.9 °F /  0.5 °C 15.8 °F /  -9 °C 1013.8 in /  34327.3 hPa SE 13.0 mph /  20.9 km/h 13.0 mph /  20.9 km/h 36 % 0.0 in /  0 mm
15:03 33.2 °F /  0.7 °C 15.7 °F /  -9.1 °C 1013.8 in /  34327.3 hPa SW 13.7 mph /  22 km/h 13.7 mph /  22 km/h 35 % 0.0 in /  0 mm
15:08 33.0 °F /  0.6 °C 15.1 °F /  -9.4 °C 1013.8 in /  34327.3 hPa SSW 9.3 mph /  15 km/h 9.3 mph /  15 km/h 34 % 0.0 in /  0 mm
15:14 33.2 °F /  0.7 °C 15.7 °F /  -9.1 °C 1013.8 in /  34327.3 hPa SW 9.3 mph /  15 km/h 9.3 mph /  15 km/h 35 % 0.0 in /  0 mm
15:19 33.4 °F /  0.8 °C 15.8 °F /  -9 °C 1013.8 in /  34327.3 hPa SW 9.3 mph /  15 km/h 9.3 mph /  15 km/h 35 % 0.0 in /  0 mm
15:24 33.6 °F /  0.9 °C 15.6 °F /  -9.1 °C 1013.8 in /  34327.3 hPa SSW 9.3 mph /  15 km/h 9.3 mph /  15 km/h 34 % 0.0 in /  0 mm
15:29 33.5 °F /  0.8 °C 15.5 °F /  -9.2 °C 1013.8 in /  34327.3 hPa SW 7.4 mph /  11.9 km/h 7.4 mph /  11.9 km/h 34 % 0.0 in /  0 mm
15:34 33.2 °F /  0.7 °C 14.8 °F /  -9.6 °C 1013.8 in /  34327.3 hPa WSW 14.8 mph /  23.8 km/h 14.8 mph /  23.8 km/h 33 % 0.0 in /  0 mm
15:39 33.0 °F /  0.6 °C 14.6 °F /  -9.7 °C 1013.8 in /  34327.3 hPa SW 14.8 mph /  23.8 km/h 14.8 mph /  23.8 km/h 33 % 0.0 in /  0 mm
15:44 33.6 °F /  0.9 °C 15.1 °F /  -9.4 °C 1013.8 in /  34327.3 hPa South 7.4 mph /  11.9 km/h 7.4 mph /  11.9 km/h 33 % 0.0 in /  0 mm
15:49 33.8 °F /  1 °C 15.3 °F /  -9.3 °C 1013.8 in /  34327.3 hPa WSW 16.4 mph /  26.4 km/h 16.4 mph /  26.4 km/h 33 % 0.0 in /  0 mm
15:54 33.7 °F /  0.9 °C 14.7 °F /  -9.6 °C 1013.8 in /  34327.3 hPa NNE 7.4 mph /  11.9 km/h 7.4 mph /  11.9 km/h 32 % 0.0 in /  0 mm
15:59 33.7 °F /  0.9 °C 14.7 °F /  -9.6 °C 1013.8 in /  34327.3 hPa SW 13.0 mph /  20.9 km/h 13.0 mph /  20.9 km/h 32 % 0.0 in /  0 mm
16:05 33.3 °F /  0.7 °C 13.9 °F /  -10.1 °C 1013.8 in /  34327.3 hPa SW 15.6 mph /  25.1 km/h 15.6 mph /  25.1 km/h 31 % 0.0 in /  0 mm
16:10 33.4 °F /  0.8 °C 13.9 °F /  -10.1 °C 1013.8 in /  34327.3 hPa SSW 11.1 mph /  17.9 km/h 11.1 mph /  17.9 km/h 31 % 0.0 in /  0 mm
16:15 33.8 °F /  1 °C 14.3 °F /  -9.8 °C 1013.8 in /  34327.3 hPa SW 16.7 mph /  26.9 km/h 16.7 mph /  26.9 km/h 31 % 0.0 in /  0 mm
16:20 33.8 °F /  1 °C 14.3 °F /  -9.8 °C 1013.8 in /  34327.3 hPa SW 9.3 mph /  15 km/h 9.3 mph /  15 km/h 31 % 0.0 in /  0 mm
16:25 33.7 °F /  0.9 °C 14.2 °F /  -9.9 °C 1012.8 in /  34293.4 hPa South 8.7 mph /  14 km/h 8.7 mph /  14 km/h 31 % 0.0 in /  0 mm
16:30 33.4 °F /  0.8 °C 13.4 °F /  -10.3 °C 1012.8 in /  34293.4 hPa SW 14.8 mph /  23.8 km/h 14.8 mph /  23.8 km/h 30 % 0.0 in /  0 mm
16:35 33.2 °F /  0.7 °C 12.8 °F /  -10.7 °C 1012.8 in /  34293.4 hPa South 11.1 mph /  17.9 km/h 11.1 mph /  17.9 km/h 29 % 0.0 in /  0 mm
16:40 33.4 °F /  0.8 °C 12.9 °F /  -10.6 °C 1014.8 in /  34361.1 hPa SW 13.0 mph /  20.9 km/h 13.0 mph /  20.9 km/h 29 % 0.0 in /  0 mm
16:45 33.3 °F /  0.7 °C 12.8 °F /  -10.7 °C 1014.8 in /  34361.1 hPa SW 14.8 mph /  23.8 km/h 14.8 mph /  23.8 km/h 29 % 0.0 in /  0 mm
16:50 33.4 °F /  0.8 °C 12.9 °F /  -10.6 °C 1014.8 in /  34361.1 hPa SW 7.4 mph /  11.9 km/h 7.4 mph /  11.9 km/h 29 % 0.0 in /  0 mm
16:55 33.3 °F /  0.7 °C 12.8 °F /  -10.7 °C 1013.8 in /  34327.3 hPa SW 9.7 mph /  15.6 km/h 14.5 mph /  23.3 km/h 29 % 0.0 in /  0 mm
17:00 33.6 °F /  0.9 °C 13.6 °F /  -10.2 °C 1013.8 in /  34327.3 hPa SW 10.3 mph /  16.6 km/h 10.3 mph /  16.6 km/h 30 % 0.0 in /  0 mm
17:05 33.0 °F /  0.6 °C 12.6 °F /  -10.8 °C 1013.8 in /  34327.3 hPa SW 9.7 mph /  15.6 km/h 20.9 mph /  33.6 km/h 29 % 0.0 in /  0 mm
17:10 33.1 °F /  0.6 °C 12.7 °F /  -10.7 °C 1013.8 in /  34327.3 hPa SW 8.0 mph /  12.9 km/h 14.5 mph /  23.3 km/h 29 % 0.0 in /  0 mm
17:15 33.0 °F /  0.6 °C 12.6 °F /  -10.8 °C 1013.8 in /  34327.3 hPa SW 4.8 mph /  7.7 km/h 16.1 mph /  25.9 km/h 29 % 0.0 in /  0 mm
17:20 33.4 °F /  0.8 °C 12.9 °F /  -10.6 °C 1013.8 in /  34327.3 hPa SW 8.0 mph /  12.9 km/h 16.1 mph /  25.9 km/h 29 % 0.0 in /  0 mm
17:25 33.2 °F /  0.7 °C 12.2 °F /  -11 °C 1013.8 in /  34327.3 hPa SSW 3.2 mph /  5.1 km/h 11.3 mph /  18.2 km/h 28 % 0.0 in /  0 mm
17:30 33.2 °F /  0.7 °C 12.2 °F /  -11 °C 1013.8 in /  34327.3 hPa SSW 4.8 mph /  7.7 km/h 11.3 mph /  18.2 km/h 28 % 0.0 in /  0 mm
17:35 33.3 °F /  0.7 °C 12.3 °F /  -10.9 °C 1013.8 in /  34327.3 hPa WSW 13.0 mph /  20.9 km/h 13.0 mph /  20.9 km/h 28 % 0.0 in /  0 mm
17:40 33.5 °F /  0.8 °C 12.5 °F /  -10.8 °C 1013.8 in /  34327.3 hPa SW 15.6 mph /  25.1 km/h 15.6 mph /  25.1 km/h 28 % 0.0 in /  0 mm
17:45 33.0 °F /  0.6 °C 12.1 °F /  -11.1 °C 1013.8 in /  34327.3 hPa SSW 13.0 mph /  20.9 km/h 13.0 mph /  20.9 km/h 28 % 0.0 in /  0 mm
17:50 33.2 °F /  0.7 °C 12.2 °F /  -11 °C 1013.8 in /  34327.3 hPa West 11.1 mph /  17.9 km/h 11.1 mph /  17.9 km/h 28 % 0.0 in /  0 mm
17:55 32.8 °F /  0.4 °C 11.9 °F /  -11.2 °C 1013.8 in /  34327.3 hPa SSW 13.0 mph /  20.9 km/h 13.0 mph /  20.9 km/h 28 % 0.0 in /  0 mm
18:00 32.3 °F /  0.2 °C 11.4 °F /  -11.4 °C 1013.8 in /  34327.3 hPa West 11.1 mph /  17.9 km/h 11.1 mph /  17.9 km/h 28 % 0.0 in /  0 mm
18:05 32.1 °F /  0.1 °C 11.3 °F /  -11.5 °C 1013.8 in /  34327.3 hPa SSW 13.0 mph /  20.9 km/h 13.0 mph /  20.9 km/h 28 % 0.0 in /  0 mm
18:10 32.2 °F /  0.1 °C 11.4 °F /  -11.4 °C 1013.8 in /  34327.3 hPa SSW 13.0 mph /  20.9 km/h 13.0 mph /  20.9 km/h 28 % 0.0 in /  0 mm
18:15 32.1 °F /  0.1 °C 11.3 °F /  -11.5 °C 1013.8 in /  34327.3 hPa SW 9.3 mph /  15 km/h 9.3 mph /  15 km/h 28 % 0.0 in /  0 mm
18:20 31.9 °F /  -0.1 °C 11.7 °F /  -11.3 °C 1013.8 in /  34327.3 hPa South 16.1 mph /  25.9 km/h 16.1 mph /  25.9 km/h 29 % 0.0 in /  0 mm
18:25 31.6 °F /  -0.2 °C 11.4 °F /  -11.4 °C 1013.8 in /  34327.3 hPa SSW 14.8 mph /  23.8 km/h 14.8 mph /  23.8 km/h 29 % 0.0 in /  0 mm
18:30 31.5 °F /  -0.3 °C 11.3 °F /  -11.5 °C 1013.8 in /  34327.3 hPa SW 14.8 mph /  23.8 km/h 14.8 mph /  23.8 km/h 29 % 0.0 in /  0 mm
18:35 31.6 °F /  -0.2 °C 11.4 °F /  -11.4 °C 1013.8 in /  34327.3 hPa SW 14.8 mph /  23.8 km/h 14.8 mph /  23.8 km/h 29 % 0.0 in /  0 mm
18:40 31.2 °F /  -0.4 °C 11.1 °F /  -11.6 °C 1013.8 in /  34327.3 hPa SW 9.3 mph /  15 km/h 9.3 mph /  15 km/h 29 % 0.0 in /  0 mm
18:45 31.4 °F /  -0.3 °C 11.2 °F /  -11.6 °C 1013.8 in /  34327.3 hPa WSW 11.1 mph /  17.9 km/h 11.1 mph /  17.9 km/h 29 % 0.0 in /  0 mm
18:51 31.1 °F /  -0.5 °C 10.9 °F /  -11.7 °C 1013.8 in /  34327.3 hPa WSW 13.0 mph /  20.9 km/h 13.0 mph /  20.9 km/h 29 % 0.0 in /  0 mm
18:56 30.9 °F /  -0.6 °C 11.3 °F /  -11.5 °C 1013.8 in /  34327.3 hPa SW 9.3 mph /  15 km/h 9.3 mph /  15 km/h 30 % 0.0 in /  0 mm
19:01 30.8 °F /  -0.7 °C 11.7 °F /  -11.3 °C 1013.8 in /  34327.3 hPa SSW 13.0 mph /  20.9 km/h 13.0 mph /  20.9 km/h 31 % 0.0 in /  0 mm
19:06 30.6 °F /  -0.8 °C 11.6 °F /  -11.3 °C 1013.8 in /  34327.3 hPa South 7.4 mph /  11.9 km/h 7.4 mph /  11.9 km/h 31 % 0.0 in /  0 mm
19:11 30.5 °F /  -0.8 °C 11.9 °F /  -11.2 °C 1013.8 in /  34327.3 hPa West 7.6 mph /  12.2 km/h 7.6 mph /  12.2 km/h 32 % 0.0 in /  0 mm
19:15 23.7 °F /  -4.6 °C 16.9 °F /  -8.4 °C 1014.8 in /  34361.1 hPa SW 3.2 mph /  5.1 km/h 4.8 mph /  7.7 km/h 66 % 0.0 in /  0 mm
19:16 30.2 °F /  -1 °C 12.2 °F /  -11 °C 1013.8 in /  34327.3 hPa SW 13.0 mph /  20.9 km/h 13.0 mph /  20.9 km/h 33 % 0.0 in /  0 mm
19:17 30.2 °F /  -1 °C 12.2 °F /  -11 °C 1013.8 in /  34327.3 hPa SW 11.1 mph /  17.9 km/h 11.1 mph /  17.9 km/h 33 % 0.0 in /  0 mm
19:23 30.2 °F /  -1 °C 11.7 °F /  -11.3 °C 1013.8 in /  34327.3 hPa SW 9.3 mph /  15 km/h 9.3 mph /  15 km/h 32 % 0.0 in /  0 mm
19:25 23.6 °F /  -4.7 °C 16.9 °F /  -8.4 °C 1014.8 in /  34361.1 hPa SW 3.2 mph /  5.1 km/h 4.8 mph /  7.7 km/h 66 % 0.0 in /  0 mm
19:28 29.9 °F /  -1.2 °C 11.4 °F /  -11.4 °C 1013.8 in /  34327.3 hPa WSW 13.0 mph /  20.9 km/h 13.0 mph /  20.9 km/h 32 % 0.0 in /  0 mm
19:33 29.6 °F /  -1.3 °C 11.6 °F /  -11.3 °C 1013.8 in /  34327.3 hPa SW 13.7 mph /  22 km/h 13.7 mph /  22 km/h 33 % 0.0 in /  0 mm
19:35 23.5 °F /  -4.7 °C 17.0 °F /  -8.3 °C 1014.8 in /  34361.1 hPa SW 4.8 mph /  7.7 km/h 4.8 mph /  7.7 km/h 67 % 0.0 in /  0 mm
19:38 29.3 °F /  -1.5 °C 10.9 °F /  -11.7 °C 1013.8 in /  34327.3 hPa WSW 16.7 mph /  26.9 km/h 16.7 mph /  26.9 km/h 32 % 0.0 in /  0 mm
19:43 29.3 °F /  -1.5 °C 10.9 °F /  -11.7 °C 1013.8 in /  34327.3 hPa SW 5.6 mph /  9 km/h 5.6 mph /  9 km/h 32 % 0.0 in /  0 mm
19:45 23.5 °F /  -4.7 °C 17.7 °F /  -7.9 °C 1014.8 in /  34361.1 hPa Calm   1.6 mph /  2.6 km/h 70 % 0.0 in /  0 mm
19:48 29.2 °F /  -1.6 °C 10.8 °F /  -11.8 °C 1013.8 in /  34327.3 hPa SW 9.3 mph /  15 km/h 9.3 mph /  15 km/h 32 % 0.0 in /  0 mm
19:53 29.1 °F /  -1.6 °C 11.2 °F /  -11.6 °C 1013.8 in /  34327.3 hPa SSW 9.7 mph /  15.6 km/h 9.7 mph /  15.6 km/h 33 % 0.0 in /  0 mm
19:55 23.5 °F /  -4.7 °C 17.9 °F /  -7.8 °C 1012.8 in /  34293.4 hPa NE 3.2 mph /  5.1 km/h 6.4 mph /  10.3 km/h 71 % 0.0 in /  0 mm
19:58 28.9 °F /  -1.7 °C 11.9 °F /  -11.2 °C 1013.8 in /  34327.3 hPa West 7.4 mph /  11.9 km/h 7.4 mph /  11.9 km/h 35 % 0.0 in /  0 mm
20:03 28.7 °F /  -1.8 °C 11.7 °F /  -11.3 °C 1013.8 in /  34327.3 hPa SW 11.1 mph /  17.9 km/h 11.1 mph /  17.9 km/h 35 % 0.0 in /  0 mm
20:05 23.5 °F /  -4.7 °C 18.2 °F /  -7.7 °C 1012.8 in /  34293.4 hPa NE 4.8 mph /  7.7 km/h 9.7 mph /  15.6 km/h 72 % 0.0 in /  0 mm
20:08 28.4 °F /  -2 °C 11.9 °F /  -11.2 °C 1013.8 in /  34327.3 hPa South 9.3 mph /  15 km/h 9.3 mph /  15 km/h 36 % 0.0 in /  0 mm
20:14 28.3 °F /  -2.1 °C 11.8 °F /  -11.2 °C 1013.8 in /  34327.3 hPa WSW 5.6 mph /  9 km/h 5.6 mph /  9 km/h 36 % 0.0 in /  0 mm
20:19 28.2 °F /  -2.1 °C 11.7 °F /  -11.3 °C 1013.8 in /  34327.3 hPa SW 9.3 mph /  15 km/h 9.3 mph /  15 km/h 36 % 0.0 in /  0 mm
20:24 28.0 °F /  -2.2 °C 11.6 °F /  -11.3 °C 1013.8 in /  34327.3 hPa SW 7.4 mph /  11.9 km/h 7.4 mph /  11.9 km/h 36 % 0.0 in /  0 mm
20:25 23.4 °F /  -4.8 °C 17.8 °F /  -7.9 °C 1013.8 in /  34327.3 hPa NE 3.2 mph /  5.1 km/h 3.2 mph /  5.1 km/h 71 % 0.0 in /  0 mm
20:29 27.6 °F /  -2.4 °C 11.6 °F /  -11.3 °C 1013.8 in /  34327.3 hPa SSW 5.6 mph /  9 km/h 5.6 mph /  9 km/h 37 % 0.0 in /  0 mm
20:34 27.5 °F /  -2.5 °C 11.5 °F /  -11.4 °C 1013.8 in /  34327.3 hPa WSW 6.1 mph /  9.8 km/h 6.1 mph /  9.8 km/h 37 % 0.0 in /  0 mm
20:35 23.4 °F /  -4.8 °C 17.6 °F /  -8 °C 1013.8 in /  34327.3 hPa WSW 3.2 mph /  5.1 km/h 4.8 mph /  7.7 km/h 70 % 0.0 in /  0 mm
20:39 27.3 °F /  -2.6 °C 11.7 °F /  -11.3 °C 1013.8 in /  34327.3 hPa SSW 5.6 mph /  9 km/h 5.6 mph /  9 km/h 38 % 0.0 in /  0 mm
20:44 27.1 °F /  -2.7 °C 11.6 °F /  -11.3 °C 1013.8 in /  34327.3 hPa WSW 3.7 mph /  6 km/h 3.7 mph /  6 km/h 38 % 0.0 in /  0 mm
20:45 23.4 °F /  -4.8 °C 18.1 °F /  -7.7 °C 1013.8 in /  34327.3 hPa Calm   3.2 mph /  5.1 km/h 72 % 0.0 in /  0 mm
20:49 27.0 °F /  -2.8 °C 11.9 °F /  -11.2 °C 1013.8 in /  34327.3 hPa SW 3.7 mph /  6 km/h 3.7 mph /  6 km/h 39 % 0.0 in /  0 mm
20:54 26.9 °F /  -2.8 °C 12.2 °F /  -11 °C 1013.8 in /  34327.3 hPa SSW 5.6 mph /  9 km/h 5.6 mph /  9 km/h 40 % 0.0 in /  0 mm
20:59 26.6 °F /  -3 °C 12.3 °F /  -10.9 °C 1013.8 in /  34327.3 hPa SSE 7.6 mph /  12.2 km/h 7.6 mph /  12.2 km/h 41 % 0.0 in /  0 mm
21:05 26.5 °F /  -3.1 °C 12.6 °F /  -10.8 °C 1013.8 in /  34327.3 hPa SW 3.2 mph /  5.1 km/h 9.7 mph /  15.6 km/h 42 % 0.0 in /  0 mm
21:10 26.3 °F /  -3.2 °C 13.1 °F /  -10.5 °C 1014.8 in /  34361.1 hPa WSW 3.2 mph /  5.1 km/h 9.7 mph /  15.6 km/h 44 % 0.0 in /  0 mm
21:15 26.1 °F /  -3.3 °C 13.2 °F /  -10.4 °C 1014.8 in /  34361.1 hPa SW 3.2 mph /  5.1 km/h 9.7 mph /  15.6 km/h 45 % 0.0 in /  0 mm
21:20 25.9 °F /  -3.4 °C 13.4 °F /  -10.3 °C 1014.8 in /  34361.1 hPa SW 4.8 mph /  7.7 km/h 9.7 mph /  15.6 km/h 46 % 0.0 in /  0 mm
21:25 25.8 °F /  -3.4 °C 13.6 °F /  -10.2 °C 1015.8 in /  34395 hPa SW 4.8 mph /  7.7 km/h 8.0 mph /  12.9 km/h 47 % 0.0 in /  0 mm
21:30 25.7 °F /  -3.5 °C 13.9 °F /  -10.1 °C 1015.8 in /  34395 hPa SW 4.8 mph /  7.7 km/h 9.7 mph /  15.6 km/h 48 % 0.0 in /  0 mm
21:35 25.6 °F /  -3.6 °C 14.4 °F /  -9.8 °C 1015.8 in /  34395 hPa SW 3.2 mph /  5.1 km/h 8.0 mph /  12.9 km/h 50 % 0.0 in /  0 mm
21:40 25.5 °F /  -3.6 °C 14.3 °F /  -9.8 °C 1014.8 in /  34361.1 hPa SW 3.2 mph /  5.1 km/h 8.0 mph /  12.9 km/h 50 % 0.0 in /  0 mm
21:45 25.4 °F /  -3.7 °C 14.6 °F /  -9.7 °C 1014.8 in /  34361.1 hPa SW 4.8 mph /  7.7 km/h 8.0 mph /  12.9 km/h 51 % 0.0 in /  0 mm
21:50 25.3 °F /  -3.7 °C 14.7 °F /  -9.6 °C 1014.8 in /  34361.1 hPa South 1.9 mph /  3.1 km/h   52 % 0.0 in /  0 mm
21:55 25.3 °F /  -3.7 °C 15.1 °F /  -9.4 °C 1014.8 in /  34361.1 hPa SSE 1.9 mph /  3.1 km/h   53 % 0.0 in /  0 mm
22:00 25.2 °F /  -3.8 °C 14.9 °F /  -9.5 °C 1014.8 in /  34361.1 hPa WSW 3.7 mph /  6 km/h 3.7 mph /  6 km/h 53 % 0.0 in /  0 mm
22:05 25.2 °F /  -3.8 °C 14.9 °F /  -9.5 °C 1014.8 in /  34361.1 hPa WSW 2.6 mph /  4.2 km/h   53 % 0.0 in /  0 mm
22:10 25.1 °F /  -3.8 °C 14.8 °F /  -9.6 °C 1014.8 in /  34361.1 hPa WSW 3.7 mph /  6 km/h 3.7 mph /  6 km/h 53 % 0.0 in /  0 mm
22:15 25.1 °F /  -3.8 °C 15.1 °F /  -9.4 °C 1014.8 in /  34361.1 hPa WSW 1.6 mph /  2.6 km/h 1.6 mph /  2.6 km/h 54 % 0.0 in /  0 mm
22:20 25.0 °F /  -3.9 °C 15.1 °F /  -9.4 °C 1014.8 in /  34361.1 hPa Calm   3.2 mph /  5.1 km/h 54 % 0.0 in /  0 mm
22:25 25.0 °F /  -3.9 °C 15.1 °F /  -9.4 °C 1014.8 in /  34361.1 hPa SW 1.6 mph /  2.6 km/h 4.8 mph /  7.7 km/h 54 % 0.0 in /  0 mm
22:30 24.9 °F /  -3.9 °C 15.2 °F /  -9.3 °C 1014.8 in /  34361.1 hPa SW 3.2 mph /  5.1 km/h 4.8 mph /  7.7 km/h 55 % 0.0 in /  0 mm
22:35 24.8 °F /  -4 °C 15.4 °F /  -9.2 °C 1014.8 in /  34361.1 hPa SW 5.6 mph /  9 km/h 5.6 mph /  9 km/h 56 % 0.0 in /  0 mm
22:40 24.7 °F /  -4.1 °C 15.3 °F /  -9.3 °C 1014.8 in /  34361.1 hPa Calm   3.2 mph /  5.1 km/h 56 % 0.0 in /  0 mm
22:45 24.6 °F /  -4.1 °C 15.5 °F /  -9.2 °C 1014.8 in /  34361.1 hPa Calm   1.6 mph /  2.6 km/h 57 % 0.0 in /  0 mm
22:50 24.5 °F /  -4.2 °C 15.4 °F /  -9.2 °C 1014.8 in /  34361.1 hPa Calm   1.6 mph /  2.6 km/h 57 % 0.0 in /  0 mm
22:55 24.5 °F /  -4.2 °C 15.4 °F /  -9.2 °C 1014.8 in /  34361.1 hPa SSW 1.6 mph /  2.6 km/h 3.2 mph /  5.1 km/h 57 % 0.0 in /  0 mm
23:00 24.5 °F /  -4.2 °C 15.4 °F /  -9.2 °C 1014.8 in /  34361.1 hPa Calm   3.2 mph /  5.1 km/h 57 % 0.0 in /  0 mm
23:05 24.4 °F /  -4.2 °C 15.3 °F /  -9.3 °C 1014.8 in /  34361.1 hPa WSW 1.6 mph /  2.6 km/h 3.2 mph /  5.1 km/h 57 % 0.0 in /  0 mm
23:10 24.3 °F /  -4.3 °C 15.2 °F /  -9.3 °C 1014.8 in /  34361.1 hPa SW 3.7 mph /  6 km/h 3.7 mph /  6 km/h 57 % 0.0 in /  0 mm
23:15 24.2 °F /  -4.3 °C 15.4 °F /  -9.2 °C 1014.8 in /  34361.1 hPa SW 1.6 mph /  2.6 km/h 3.2 mph /  5.1 km/h 58 % 0.0 in /  0 mm
23:20 24.2 °F /  -4.3 °C 15.4 °F /  -9.2 °C 1014.8 in /  34361.1 hPa SW 3.2 mph /  5.1 km/h 4.8 mph /  7.7 km/h 58 % 0.0 in /  0 mm
23:25 24.1 °F /  -4.4 °C 15.3 °F /  -9.3 °C 1014.8 in /  34361.1 hPa SW 3.2 mph /  5.1 km/h 4.8 mph /  7.7 km/h 58 % 0.0 in /  0 mm
23:30 23.9 °F /  -4.5 °C 15.7 °F /  -9.1 °C 1014.8 in /  34361.1 hPa SW 1.6 mph /  2.6 km/h 4.8 mph /  7.7 km/h 60 % 0.0 in /  0 mm
23:35 23.8 °F /  -4.6 °C 15.8 °F /  -9 °C 1014.8 in /  34361.1 hPa SW 3.2 mph /  5.1 km/h 4.8 mph /  7.7 km/h 61 % 0.0 in /  0 mm
23:40 23.8 °F /  -4.6 °C 15.8 °F /  -9 °C 1014.8 in /  34361.1 hPa SW 3.2 mph /  5.1 km/h 6.4 mph /  10.3 km/h 61 % 0.0 in /  0 mm
23:45 23.7 °F /  -4.6 °C 16.0 °F /  -8.9 °C 1014.8 in /  34361.1 hPa SW 3.2 mph /  5.1 km/h 4.8 mph /  7.7 km/h 62 % 0.0 in /  0 mm
23:50 23.7 °F /  -4.6 °C 16.0 °F /  -8.9 °C 1014.8 in /  34361.1 hPa SW 3.2 mph /  5.1 km/h 6.4 mph /  10.3 km/h 62 % 0.0 in /  0 mm
23:55 23.7 °F /  -4.6 °C 16.2 °F /  -8.8 °C 1014.8 in /  34361.1 hPa SW 3.2 mph /  5.1 km/h 8.0 mph /  12.9 km/h 63 % 0.0 in /  0 mm
Meteo Sesrovires
Elogis d' Weather Underground - 1.5 mb

Guio original per  Jim McMurry - jmcmurry@mwt.net Adaptat per a la plantilla per  Wim van der Kuil - Leuven-Template.eu

Trobareu la nostra informacio del temps tambe a:

Weather Underground

AWEKAS